createdAt,value
2024-01-10T00:02:25.061Z,-9.24
2024-01-10T00:05:20.936Z,-9.23
2024-01-10T00:08:14.739Z,-9.18
2024-01-10T00:11:30.072Z,-9.19
2024-01-10T00:14:21.720Z,-9.23
2024-01-10T00:17:32.296Z,-9.28
2024-01-10T00:20:43.829Z,-9.33
2024-01-10T00:23:38.660Z,-9.37
2024-01-10T00:26:19.109Z,-9.36
2024-01-10T00:29:01.712Z,-9.39
2024-01-10T00:31:51.598Z,-9.42
2024-01-10T00:34:37.369Z,-9.49
2024-01-10T00:37:26.336Z,-9.44
2024-01-10T00:40:21.001Z,-9.41
2024-01-10T00:43:02.198Z,-9.42
2024-01-10T00:45:54.888Z,-9.42
2024-01-10T00:48:49.319Z,-9.43
2024-01-10T00:51:36.976Z,-9.47
2024-01-10T00:54:26.834Z,-9.49
2024-01-10T00:57:06.604Z,-9.48
2024-01-10T00:59:57.296Z,-9.48
2024-01-10T01:02:46.080Z,-9.45
2024-01-10T01:05:32.599Z,-9.50
2024-01-10T01:08:52.079Z,-9.42
2024-01-10T01:11:55.985Z,-9.38
2024-01-10T01:14:44.681Z,-9.49
2024-01-10T01:17:30.366Z,-9.44
2024-01-10T01:20:08.150Z,-9.45
2024-01-10T01:22:55.149Z,-9.45
2024-01-10T01:25:44.619Z,-9.43
2024-01-10T01:28:24.291Z,-9.45
2024-01-10T01:31:16.621Z,-9.48
2024-01-10T01:34:04.558Z,-9.48
2024-01-10T01:36:54.423Z,-9.44
2024-01-10T01:39:42.472Z,-9.39
2024-01-10T01:42:34.784Z,-9.37
2024-01-10T01:45:28.810Z,-9.43
2024-01-10T01:48:17.054Z,-9.41
2024-01-10T01:51:13.772Z,-9.30
2024-01-10T01:54:02.765Z,-9.41
2024-01-10T01:56:56.907Z,-9.48
2024-01-10T01:59:46.798Z,-9.44
2024-01-10T02:02:33.406Z,-9.51
2024-01-10T02:05:18.416Z,-9.55
2024-01-10T02:08:07.174Z,-9.44
2024-01-10T02:11:00.981Z,-9.47
2024-01-10T02:13:48.435Z,-9.60
2024-01-10T02:17:02.259Z,-9.61
2024-01-10T02:19:41.545Z,-9.75
2024-01-10T02:22:40.325Z,-9.82
2024-01-10T02:25:32.536Z,-9.80
2024-01-10T02:28:25.386Z,-9.81
2024-01-10T02:31:30.371Z,-9.82
2024-01-10T02:34:12.646Z,-9.82
2024-01-10T02:37:00.202Z,-9.89
2024-01-10T02:39:48.307Z,-9.83
2024-01-10T02:42:38.723Z,-9.90
2024-01-10T02:45:22.617Z,-9.85
2024-01-10T02:48:20.587Z,-9.83
2024-01-10T02:51:08.144Z,-9.93
2024-01-10T02:53:59.299Z,-9.95
2024-01-10T02:56:52.352Z,-9.85
2024-01-10T02:59:48.383Z,-9.89
2024-01-10T03:02:32.639Z,-9.90
2024-01-10T03:05:27.815Z,-9.98
2024-01-10T03:08:15.545Z,-9.97
2024-01-10T03:10:52.606Z,-9.85
2024-01-10T03:13:42.335Z,-9.76
2024-01-10T03:16:36.649Z,-9.77
2024-01-10T03:19:26.117Z,-9.84
2024-01-10T03:22:21.480Z,-9.82
2024-01-10T03:25:05.450Z,-9.80
2024-01-10T03:27:51.028Z,-9.91
2024-01-10T03:30:40.916Z,-9.88
2024-01-10T03:33:28.504Z,-9.92
2024-01-10T03:36:09.096Z,-9.91
2024-01-10T03:38:55.078Z,-9.84
2024-01-10T03:41:30.252Z,-9.82
2024-01-10T03:44:32.909Z,-9.87
2024-01-10T03:47:30.416Z,-9.89
2024-01-10T03:50:33.692Z,-9.89
2024-01-10T03:53:14.472Z,-9.90
2024-01-10T03:56:10.876Z,-9.87
2024-01-10T03:58:58.973Z,-9.86
2024-01-10T04:01:51.813Z,-9.93
2024-01-10T04:04:44.019Z,-9.93
2024-01-10T04:07:34.198Z,-9.85
2024-01-10T04:10:42.164Z,-9.87
2024-01-10T04:13:46.663Z,-9.86
2024-01-10T04:16:35.608Z,-9.87
2024-01-10T04:19:29.080Z,-9.79
2024-01-10T04:22:26.110Z,-9.85
2024-01-10T04:25:21.803Z,-9.84
2024-01-10T04:28:08.659Z,-9.76
2024-01-10T04:31:04.732Z,-9.74
2024-01-10T04:33:51.697Z,-9.74
2024-01-10T04:36:49.505Z,-9.75
2024-01-10T04:39:52.457Z,-9.76
2024-01-10T04:42:51.188Z,-9.75
2024-01-10T04:45:40.546Z,-9.75
2024-01-10T04:48:34.534Z,-9.74
2024-01-10T04:51:39.065Z,-9.71
2024-01-10T04:54:25.115Z,-9.67
2024-01-10T04:57:24.146Z,-9.71
2024-01-10T05:00:14.518Z,-9.76
2024-01-10T05:03:19.303Z,-9.72
2024-01-10T05:06:07.848Z,-9.67
2024-01-10T05:09:06.845Z,-9.63
2024-01-10T05:11:58.622Z,-9.59
2024-01-10T05:14:46.086Z,-9.56
2024-01-10T05:17:57.179Z,-9.55
2024-01-10T05:21:28.549Z,-9.50
2024-01-10T05:24:34.194Z,-9.39
2024-01-10T05:27:34.106Z,-9.44
2024-01-10T05:30:45.337Z,-9.45
2024-01-10T05:33:39.835Z,-9.41
2024-01-10T05:37:00.723Z,-9.37
2024-01-10T05:43:11.543Z,-9.38
2024-01-10T05:46:05.166Z,-9.42
2024-01-10T05:48:59.844Z,-9.42
2024-01-10T05:51:50.401Z,-9.40
2024-01-10T05:54:54.442Z,-9.46
2024-01-10T05:57:38.623Z,-9.39
2024-01-10T06:00:30.449Z,-9.37
2024-01-10T06:03:20.514Z,-9.26
2024-01-10T06:06:19.431Z,-9.28
2024-01-10T06:09:30.360Z,-9.20
2024-01-10T06:12:30.809Z,-9.14
2024-01-10T06:15:39.392Z,-9.12
2024-01-10T06:18:33.589Z,-9.00
2024-01-10T06:21:49.043Z,-9.00
2024-01-10T06:25:14.489Z,-8.89
2024-01-10T06:28:23.502Z,-8.80
2024-01-10T06:31:28.647Z,-8.81
2024-01-10T06:34:16.919Z,-8.74
2024-01-10T06:37:25.344Z,-8.67
2024-01-10T06:40:28.565Z,-8.64
2024-01-10T06:43:13.503Z,-8.61
2024-01-10T06:46:24.282Z,-8.61
2024-01-10T06:50:01.204Z,-8.58
2024-01-10T06:53:11.302Z,-8.57
2024-01-10T06:55:52.302Z,-8.53
2024-01-10T06:58:33.369Z,-8.47
2024-01-10T07:01:12.118Z,-8.34
2024-01-10T07:04:02.910Z,-8.29
2024-01-10T07:06:56.368Z,-8.19
2024-01-10T07:10:19.382Z,-8.11
2024-01-10T07:13:47.092Z,-7.98
2024-01-10T07:17:16.398Z,-7.87
2024-01-10T07:20:11.748Z,-7.84
2024-01-10T07:23:07.375Z,-7.82
2024-01-10T07:26:16.144Z,-7.68
2024-01-10T07:29:19.814Z,-7.61
2024-01-10T07:32:24.240Z,-7.64
2024-01-10T07:35:21.052Z,-7.40
2024-01-10T07:38:20.435Z,-7.31
2024-01-10T07:41:42.144Z,-7.23
2024-01-10T07:44:35.393Z,-7.20
2024-01-10T07:47:40.592Z,-7.14
2024-01-10T07:50:32.794Z,-7.06
2024-01-10T07:53:50.678Z,-6.96
2024-01-10T07:57:28.703Z,-6.92
2024-01-10T08:01:02.817Z,-6.85
2024-01-10T08:04:07.755Z,-6.82
2024-01-10T08:07:26.195Z,-6.74
2024-01-10T08:10:19.458Z,-6.64
2024-01-10T08:13:43.601Z,-6.44
2024-01-10T08:16:49.038Z,-6.31
2024-01-10T08:20:23.186Z,-6.23
2024-01-10T08:23:24.721Z,-6.01
2024-01-10T08:30:09.112Z,-5.63
2024-01-10T08:36:58.106Z,-5.39
2024-01-10T08:40:13.732Z,-5.20
2024-01-10T08:43:44.696Z,-5.03
2024-01-10T08:46:45.557Z,-4.82
2024-01-10T08:50:01.623Z,-4.72
2024-01-10T08:53:21.734Z,-4.85
2024-01-10T08:56:29.614Z,-4.80
2024-01-10T09:00:04.869Z,-4.56
2024-01-10T09:03:57.262Z,-4.27
2024-01-10T09:07:41.349Z,-3.93
2024-01-10T09:10:46.592Z,-3.89
2024-01-10T09:14:42.331Z,-3.83
2024-01-10T09:17:49.095Z,-3.75
2024-01-10T09:21:17.566Z,-3.60
2024-01-10T09:27:35.432Z,-3.33
2024-01-10T09:34:16.799Z,-3.10
2024-01-10T09:37:26.456Z,-3.06
2024-01-10T09:40:54.177Z,-2.86
2024-01-10T09:43:53.386Z,-2.73
2024-01-10T09:46:42.017Z,-2.54
2024-01-10T09:49:47.828Z,-2.43
2024-01-10T09:53:15.703Z,-2.31
2024-01-10T09:56:06.515Z,-2.05
2024-01-10T09:59:55.314Z,-1.85
2024-01-10T10:02:57.632Z,-1.72
2024-01-10T10:06:23.723Z,-1.79
2024-01-10T10:09:33.582Z,-1.77
2024-01-10T10:12:54.666Z,-1.75
2024-01-10T10:16:58.182Z,-1.73
2024-01-10T10:24:09.195Z,-2.04
2024-01-10T10:27:24.378Z,-1.87
2024-01-10T10:31:07.763Z,-1.86
2024-01-10T10:34:16.000Z,-1.62
2024-01-10T10:37:16.436Z,-1.71
2024-01-10T10:40:05.599Z,-1.71
2024-01-10T10:43:08.204Z,-1.75
2024-01-10T10:46:13.871Z,-1.82
2024-01-10T10:49:15.204Z,-1.88
2024-01-10T10:53:52.524Z,-1.99
2024-01-10T10:57:16.445Z,-2.05
2024-01-10T11:00:37.594Z,-1.77
2024-01-10T11:03:58.360Z,-1.96
2024-01-10T11:07:01.372Z,-2.04
2024-01-10T11:10:01.436Z,-2.17
2024-01-10T11:13:38.140Z,-2.17
2024-01-10T11:17:20.039Z,-2.13
2024-01-10T11:21:19.894Z,-2.27
2024-01-10T11:25:16.418Z,-2.44
2024-01-10T11:28:32.547Z,-2.52
2024-01-10T11:32:16.998Z,-2.64
2024-01-10T11:35:17.715Z,-2.67
2024-01-10T11:38:29.050Z,-2.72
2024-01-10T11:41:48.310Z,-2.77
2024-01-10T11:45:06.697Z,-2.80
2024-01-10T11:48:33.200Z,-2.87
2024-01-10T11:51:51.192Z,-2.87
2024-01-10T11:55:32.735Z,-2.90
2024-01-10T12:01:43.200Z,-2.99
2024-01-10T12:04:41.976Z,-2.99
2024-01-10T12:07:44.689Z,-2.94
2024-01-10T12:10:31.463Z,-2.91
2024-01-10T12:13:47.411Z,-2.89
2024-01-10T12:16:51.956Z,-2.86
2024-01-10T12:20:04.850Z,-2.85
2024-01-10T12:23:06.789Z,-2.85
2024-01-10T12:26:36.789Z,-2.80
2024-01-10T12:30:23.618Z,-2.78
2024-01-10T12:33:49.218Z,-2.81
2024-01-10T12:36:42.557Z,-2.84
2024-01-10T12:39:35.537Z,-2.80
2024-01-10T12:42:20.220Z,-2.74
2024-01-10T12:45:20.818Z,-2.70
2024-01-10T12:48:20.754Z,-2.67
2024-01-10T12:51:17.088Z,-2.68
2024-01-10T12:54:30.051Z,-2.68
2024-01-10T12:57:28.881Z,-2.67
2024-01-10T13:00:27.651Z,-2.69
2024-01-10T13:03:29.028Z,-2.73
2024-01-10T13:06:39.057Z,-2.72
2024-01-10T13:09:34.907Z,-2.68
2024-01-10T13:12:25.375Z,-2.68
2024-01-10T13:15:42.459Z,-2.70
2024-01-10T13:18:55.635Z,-2.70
2024-01-10T13:21:52.306Z,-2.73
2024-01-10T13:24:36.988Z,-2.76
2024-01-10T13:27:54.100Z,-2.70
2024-01-10T13:31:16.786Z,-2.74
2024-01-10T13:34:12.782Z,-2.80
2024-01-10T13:37:03.518Z,-2.80
2024-01-10T13:39:44.777Z,-2.83
2024-01-10T13:43:00.341Z,-2.85
2024-01-10T13:45:41.307Z,-2.87
2024-01-10T13:49:04.728Z,-2.88
2024-01-10T13:51:54.518Z,-2.94
2024-01-10T13:54:34.556Z,-2.89
2024-01-10T13:57:19.500Z,-2.88
2024-01-10T14:00:09.488Z,-2.89
2024-01-10T14:03:05.471Z,-2.96
2024-01-10T14:05:59.068Z,-2.95
2024-01-10T14:08:37.175Z,-2.94
2024-01-10T14:11:18.828Z,-2.94
2024-01-10T14:14:38.735Z,-2.93
2024-01-10T14:17:14.678Z,-3.03
2024-01-10T14:20:02.334Z,-3.03
2024-01-10T14:22:44.847Z,-3.06
2024-01-10T14:25:36.310Z,-3.13
2024-01-10T14:28:34.674Z,-3.16
2024-01-10T14:31:29.603Z,-3.21
2024-01-10T14:34:31.331Z,-3.25
2024-01-10T14:37:34.154Z,-3.22
2024-01-10T14:40:54.189Z,-3.28
2024-01-10T14:43:38.457Z,-3.31
2024-01-10T14:46:25.434Z,-3.38
2024-01-10T14:49:07.350Z,-3.45
2024-01-10T14:51:56.151Z,-3.44
2024-01-10T14:54:54.399Z,-3.38
2024-01-10T14:58:13.368Z,-3.43
2024-01-10T15:01:10.903Z,-3.45
2024-01-10T15:03:56.060Z,-3.54
2024-01-10T15:06:50.889Z,-3.45
2024-01-10T15:09:36.172Z,-3.46
2024-01-10T15:12:26.237Z,-3.50
2024-01-10T15:15:09.053Z,-3.55
2024-01-10T15:17:51.414Z,-3.58
2024-01-10T15:20:31.061Z,-3.66
2024-01-10T15:23:28.809Z,-3.63
2024-01-10T15:26:20.729Z,-3.65
2024-01-10T15:29:03.680Z,-3.58
2024-01-10T15:31:55.168Z,-3.70
2024-01-10T15:34:56.400Z,-3.66
2024-01-10T15:37:43.051Z,-3.75
2024-01-10T15:40:42.275Z,-3.75
2024-01-10T15:43:22.842Z,-3.88
2024-01-10T15:46:00.695Z,-3.72
2024-01-10T15:48:40.209Z,-3.74
2024-01-10T15:51:35.371Z,-3.78
2024-01-10T15:54:23.733Z,-3.81
2024-01-10T15:57:15.489Z,-3.80
2024-01-10T16:02:57.966Z,-3.87
2024-01-10T16:05:44.865Z,-3.93
2024-01-10T16:08:59.032Z,-3.93
2024-01-10T16:11:52.580Z,-4.00
2024-01-10T16:14:38.245Z,-4.03
2024-01-10T16:17:17.715Z,-4.01
2024-01-10T16:20:10.672Z,-4.07
2024-01-10T16:23:00.482Z,-4.05
2024-01-10T16:26:14.182Z,-4.11
2024-01-10T16:29:15.357Z,-4.15
2024-01-10T16:32:10.116Z,-4.16
2024-01-10T16:35:26.092Z,-4.23
2024-01-10T16:38:24.418Z,-4.33
2024-01-10T16:41:23.786Z,-4.22
2024-01-10T16:44:25.687Z,-4.39
2024-01-10T16:47:18.761Z,-4.35
2024-01-10T16:50:03.133Z,-4.37
2024-01-10T16:52:56.494Z,-4.36
2024-01-10T16:55:40.802Z,-4.36
2024-01-10T16:58:43.939Z,-4.41
2024-01-10T17:01:31.382Z,-4.40
2024-01-10T17:04:17.758Z,-4.46
2024-01-10T17:07:11.218Z,-4.45
2024-01-10T17:10:02.055Z,-4.55
2024-01-10T17:12:52.047Z,-4.47
2024-01-10T17:16:09.411Z,-4.37
2024-01-10T17:18:47.810Z,-4.49
2024-01-10T17:21:29.578Z,-4.52
2024-01-10T17:24:36.231Z,-4.49
2024-01-10T17:27:20.385Z,-4.54
2024-01-10T17:30:04.994Z,-4.61
2024-01-10T17:32:57.100Z,-4.55
2024-01-10T17:35:51.881Z,-4.73
2024-01-10T17:38:41.597Z,-4.66
2024-01-10T17:41:26.156Z,-4.64
2024-01-10T17:44:10.535Z,-4.66
2024-01-10T17:47:14.561Z,-4.70
2024-01-10T17:50:16.082Z,-4.84
2024-01-10T17:53:05.488Z,-4.84
2024-01-10T17:56:20.322Z,-4.78
2024-01-10T17:59:20.179Z,-4.76
2024-01-10T18:02:33.618Z,-4.83
2024-01-10T18:05:43.841Z,-4.85
2024-01-10T18:08:38.967Z,-4.79
2024-01-10T18:15:01.094Z,-4.85
2024-01-10T18:18:24.966Z,-4.83
2024-01-10T18:21:20.740Z,-4.88
2024-01-10T18:24:22.222Z,-4.87
2024-01-10T18:27:02.261Z,-4.87
2024-01-10T18:29:56.797Z,-4.91
2024-01-10T18:35:59.816Z,-5.00
2024-01-10T18:39:01.230Z,-4.96
2024-01-10T18:41:54.313Z,-4.99
2024-01-10T18:44:48.515Z,-5.06
2024-01-10T18:47:49.664Z,-5.02
2024-01-10T18:50:54.616Z,-5.02
2024-01-10T18:53:44.934Z,-5.06
2024-01-10T18:59:46.343Z,-5.08
2024-01-10T19:02:46.660Z,-5.12
2024-01-10T19:05:59.156Z,-5.19
2024-01-10T19:08:50.369Z,-5.12
2024-01-10T19:11:49.712Z,-5.13
2024-01-10T19:14:51.060Z,-5.14
2024-01-10T19:17:58.785Z,-5.21
2024-01-10T19:21:07.528Z,-5.21
2024-01-10T19:23:50.225Z,-5.18
2024-01-10T19:26:43.005Z,-5.22
2024-01-10T19:32:32.655Z,-5.22
2024-01-10T19:35:12.333Z,-5.24
2024-01-10T19:38:01.044Z,-5.29
2024-01-10T19:40:49.474Z,-5.34
2024-01-10T19:43:29.476Z,-5.32
2024-01-10T19:46:13.944Z,-5.34
2024-01-10T19:49:30.434Z,-5.36
2024-01-10T19:52:16.220Z,-5.48
2024-01-10T19:55:27.377Z,-5.51
2024-01-10T19:58:24.159Z,-5.44
2024-01-10T20:01:14.210Z,-5.48
2024-01-10T20:04:05.423Z,-5.46
2024-01-10T20:06:50.957Z,-5.44
2024-01-10T20:12:45.081Z,-5.51
2024-01-10T20:15:38.737Z,-5.53
2024-01-10T20:18:35.430Z,-5.54
2024-01-10T20:21:34.509Z,-5.56
2024-01-10T20:24:28.810Z,-5.55
2024-01-10T20:27:33.682Z,-5.60
2024-01-10T20:30:34.866Z,-5.55
2024-01-10T20:33:28.039Z,-5.57
2024-01-10T20:36:12.565Z,-5.54
2024-01-10T20:38:52.680Z,-5.53
2024-01-10T20:41:47.674Z,-5.50
2024-01-10T20:44:45.445Z,-5.51
2024-01-10T20:47:47.805Z,-5.52
2024-01-10T20:50:44.544Z,-5.48
2024-01-10T20:53:24.733Z,-5.50
2024-01-10T20:56:09.640Z,-5.49
2024-01-10T20:58:55.243Z,-5.48
2024-01-10T21:01:36.324Z,-5.46
2024-01-10T21:04:44.557Z,-5.41
2024-01-10T21:07:41.097Z,-5.41
2024-01-10T21:10:34.706Z,-5.46
2024-01-10T21:13:37.972Z,-5.55
2024-01-10T21:16:21.271Z,-5.56
2024-01-10T21:22:50.149Z,-5.51
2024-01-10T21:25:40.813Z,-5.49
2024-01-10T21:31:58.629Z,-5.45
2024-01-10T21:35:37.861Z,-5.44
2024-01-10T21:41:36.856Z,-5.44
2024-01-10T21:44:43.045Z,-5.45
2024-01-10T21:47:29.859Z,-5.38
2024-01-10T21:50:35.124Z,-5.39
2024-01-10T21:53:38.380Z,-5.36
2024-01-10T21:56:58.902Z,-5.43
2024-01-10T22:00:11.386Z,-5.49
2024-01-10T22:03:07.470Z,-5.46
2024-01-10T22:05:59.617Z,-5.42
2024-01-10T22:08:59.912Z,-5.48
2024-01-10T22:12:02.348Z,-5.50
2024-01-10T22:15:16.243Z,-5.50
2024-01-10T22:18:12.518Z,-5.52
2024-01-10T22:21:12.007Z,-5.51
2024-01-10T22:24:01.148Z,-5.54
2024-01-10T22:27:20.828Z,-5.50
2024-01-10T22:30:17.025Z,-5.52
2024-01-10T22:33:07.004Z,-5.52
2024-01-10T22:36:35.199Z,-5.47
2024-01-10T22:39:34.001Z,-5.45
2024-01-10T22:42:44.515Z,-5.37
2024-01-10T22:45:34.338Z,-5.36
2024-01-10T22:48:30.302Z,-5.40
2024-01-10T22:54:39.302Z,-5.33
2024-01-10T22:57:39.663Z,-5.41
2024-01-10T23:00:28.737Z,-5.37
2024-01-10T23:03:36.854Z,-5.45
2024-01-10T23:06:26.802Z,-5.42
2024-01-10T23:09:18.749Z,-5.34
2024-01-10T23:12:18.615Z,-5.40
2024-01-10T23:15:01.350Z,-5.36
2024-01-10T23:17:46.237Z,-5.37
2024-01-10T23:20:35.152Z,-5.40
2024-01-10T23:23:19.258Z,-5.39
2024-01-10T23:26:32.979Z,-5.33
2024-01-10T23:29:15.467Z,-5.32
2024-01-10T23:32:06.188Z,-5.32
2024-01-10T23:34:50.316Z,-5.31
2024-01-10T23:37:37.578Z,-5.31
2024-01-10T23:41:06.704Z,-5.37
2024-01-10T23:44:02.089Z,-5.42
2024-01-10T23:46:54.636Z,-5.39
2024-01-10T23:49:46.396Z,-5.40
2024-01-10T23:52:39.163Z,-5.38
2024-01-10T23:55:51.925Z,-5.42
2024-01-10T23:58:40.437Z,-5.47
